sensor_id;sensor_type;location;lat;lon;timestamp;P1;durP1;ratioP1;P2;durP2;ratioP2
36653;SDS011;22650;49.350;20.898;2022-08-26T00:00:42;11.52;;;4.30;;
36653;SDS011;22650;49.350;20.898;2022-08-26T00:03:18;9.98;;;4.85;;
36653;SDS011;22650;49.350;20.898;2022-08-26T00:05:51;12.15;;;4.43;;
36653;SDS011;22650;49.350;20.898;2022-08-26T00:08:25;6.35;;;3.38;;
36653;SDS011;22650;49.350;20.898;2022-08-26T00:10:59;9.98;;;4.20;;
36653;SDS011;22650;49.350;20.898;2022-08-26T00:13:33;8.75;;;3.92;;
36653;SDS011;22650;49.350;20.898;2022-08-26T00:16:10;9.98;;;4.38;;
36653;SDS011;22650;49.350;20.898;2022-08-26T00:18:43;6.85;;;3.92;;
36653;SDS011;22650;49.350;20.898;2022-08-26T00:21:17;7.18;;;4.07;;
36653;SDS011;22650;49.350;20.898;2022-08-26T00:23:50;11.38;;;4.30;;
36653;SDS011;22650;49.350;20.898;2022-08-26T00:26:24;10.50;;;4.10;;
36653;SDS011;22650;49.350;20.898;2022-08-26T00:28:59;6.32;;;3.80;;
36653;SDS011;22650;49.350;20.898;2022-08-26T00:31:34;7.13;;;4.20;;
36653;SDS011;22650;49.350;20.898;2022-08-26T00:34:09;7.28;;;4.45;;
36653;SDS011;22650;49.350;20.898;2022-08-26T00:36:44;8.02;;;4.45;;
36653;SDS011;22650;49.350;20.898;2022-08-26T00:39:19;11.82;;;3.85;;
36653;SDS011;22650;49.350;20.898;2022-08-26T00:41:53;9.82;;;4.38;;
36653;SDS011;22650;49.350;20.898;2022-08-26T00:44:27;8.45;;;3.88;;
36653;SDS011;22650;49.350;20.898;2022-08-26T00:47:03;8.40;;;4.10;;
36653;SDS011;22650;49.350;20.898;2022-08-26T00:49:42;7.75;;;4.00;;
36653;SDS011;22650;49.350;20.898;2022-08-26T00:52:19;7.82;;;3.25;;
36653;SDS011;22650;49.350;20.898;2022-08-26T00:54:54;8.65;;;4.22;;
36653;SDS011;22650;49.350;20.898;2022-08-26T00:57:34;8.55;;;3.60;;
36653;SDS011;22650;49.350;20.898;2022-08-26T01:00:09;9.50;;;4.47;;
36653;SDS011;22650;49.350;20.898;2022-08-26T01:02:47;8.27;;;4.35;;
36653;SDS011;22650;49.350;20.898;2022-08-26T01:05:22;10.57;;;4.50;;
36653;SDS011;22650;49.350;20.898;2022-08-26T01:07:56;6.45;;;3.60;;
36653;SDS011;22650;49.350;20.898;2022-08-26T01:10:29;9.23;;;4.22;;
36653;SDS011;22650;49.350;20.898;2022-08-26T01:13:04;9.70;;;3.88;;
36653;SDS011;22650;49.350;20.898;2022-08-26T01:15:42;9.32;;;3.47;;
36653;SDS011;22650;49.350;20.898;2022-08-26T01:18:21;9.63;;;4.38;;
36653;SDS011;22650;49.350;20.898;2022-08-26T01:20:57;12.60;;;3.70;;
36653;SDS011;22650;49.350;20.898;2022-08-26T01:23:40;15.27;;;3.55;;
36653;SDS011;22650;49.350;20.898;2022-08-26T01:26:17;15.30;;;4.63;;
36653;SDS011;22650;49.350;20.898;2022-08-26T01:28:55;10.50;;;4.43;;
36653;SDS011;22650;49.350;20.898;2022-08-26T01:31:33;7.43;;;4.07;;
36653;SDS011;22650;49.350;20.898;2022-08-26T01:34:14;10.85;;;3.47;;
36653;SDS011;22650;49.350;20.898;2022-08-26T01:36:53;11.35;;;4.60;;
36653;SDS011;22650;49.350;20.898;2022-08-26T01:39:32;8.88;;;3.58;;
36653;SDS011;22650;49.350;20.898;2022-08-26T01:42:07;8.20;;;3.67;;
36653;SDS011;22650;49.350;20.898;2022-08-26T01:44:46;5.40;;;3.17;;
36653;SDS011;22650;49.350;20.898;2022-08-26T01:47:23;10.90;;;4.50;;
36653;SDS011;22650;49.350;20.898;2022-08-26T01:50:01;13.35;;;4.60;;
36653;SDS011;22650;49.350;20.898;2022-08-26T01:52:39;9.95;;;4.05;;
36653;SDS011;22650;49.350;20.898;2022-08-26T01:55:19;7.40;;;3.85;;
36653;SDS011;22650;49.350;20.898;2022-08-26T01:58:04;10.27;;;3.75;;
36653;SDS011;22650;49.350;20.898;2022-08-26T02:00:44;8.88;;;4.00;;
36653;SDS011;22650;49.350;20.898;2022-08-26T02:03:20;6.68;;;3.95;;
36653;SDS011;22650;49.350;20.898;2022-08-26T02:05:56;13.07;;;4.30;;
36653;SDS011;22650;49.350;20.898;2022-08-26T02:08:30;8.00;;;3.90;;
36653;SDS011;22650;49.350;20.898;2022-08-26T02:11:11;8.38;;;4.28;;
36653;SDS011;22650;49.350;20.898;2022-08-26T02:13:50;8.88;;;4.15;;
36653;SDS011;22650;49.350;20.898;2022-08-26T02:16:30;6.00;;;3.38;;
36653;SDS011;22650;49.350;20.898;2022-08-26T02:19:07;9.45;;;3.75;;
36653;SDS011;22650;49.350;20.898;2022-08-26T02:21:48;6.35;;;3.75;;
36653;SDS011;22650;49.350;20.898;2022-08-26T02:24:25;11.52;;;4.45;;
36653;SDS011;22650;49.350;20.898;2022-08-26T02:27:02;6.32;;;3.63;;
36653;SDS011;22650;49.350;20.898;2022-08-26T02:29:37;5.18;;;3.30;;
36653;SDS011;22650;49.350;20.898;2022-08-26T02:32:16;7.45;;;3.88;;
36653;SDS011;22650;49.350;20.898;2022-08-26T02:34:50;7.20;;;3.55;;
36653;SDS011;22650;49.350;20.898;2022-08-26T02:37:27;5.88;;;3.05;;
36653;SDS011;22650;49.350;20.898;2022-08-26T02:40:01;5.50;;;3.75;;
36653;SDS011;22650;49.350;20.898;2022-08-26T02:42:38;6.47;;;3.35;;
36653;SDS011;22650;49.350;20.898;2022-08-26T02:45:12;7.32;;;3.17;;
36653;SDS011;22650;49.350;20.898;2022-08-26T02:47:54;13.32;;;3.60;;
36653;SDS011;22650;49.350;20.898;2022-08-26T02:50:30;8.93;;;4.28;;
36653;SDS011;22650;49.350;20.898;2022-08-26T02:53:05;5.30;;;3.42;;
36653;SDS011;22650;49.350;20.898;2022-08-26T02:55:40;7.78;;;4.05;;
36653;SDS011;22650;49.350;20.898;2022-08-26T02:58:15;5.55;;;3.70;;
36653;SDS011;22650;49.350;20.898;2022-08-26T03:00:49;6.22;;;3.95;;
36653;SDS011;22650;49.350;20.898;2022-08-26T03:03:25;12.80;;;3.67;;
36653;SDS011;22650;49.350;20.898;2022-08-26T03:06:00;7.75;;;3.20;;
36653;SDS011;22650;49.350;20.898;2022-08-26T03:08:34;5.60;;;3.58;;
36653;SDS011;22650;49.350;20.898;2022-08-26T03:11:07;7.47;;;3.47;;
36653;SDS011;22650;49.350;20.898;2022-08-26T03:13:43;5.03;;;3.33;;
36653;SDS011;22650;49.350;20.898;2022-08-26T03:16:17;6.82;;;3.80;;
36653;SDS011;22650;49.350;20.898;2022-08-26T03:18:51;13.80;;;4.18;;
36653;SDS011;22650;49.350;20.898;2022-08-26T03:21:24;12.65;;;4.03;;
36653;SDS011;22650;49.350;20.898;2022-08-26T03:23:58;10.15;;;3.10;;
36653;SDS011;22650;49.350;20.898;2022-08-26T03:26:32;6.13;;;4.10;;
36653;SDS011;22650;49.350;20.898;2022-08-26T03:29:08;7.85;;;4.35;;
36653;SDS011;22650;49.350;20.898;2022-08-26T03:32:03;6.10;;;3.38;;
36653;SDS011;22650;49.350;20.898;2022-08-26T03:34:37;8.00;;;3.25;;
36653;SDS011;22650;49.350;20.898;2022-08-26T03:37:10;6.70;;;4.10;;
36653;SDS011;22650;49.350;20.898;2022-08-26T03:39:44;8.45;;;4.38;;
36653;SDS011;22650;49.350;20.898;2022-08-26T03:42:17;18.23;;;4.57;;
36653;SDS011;22650;49.350;20.898;2022-08-26T03:44:54;8.18;;;3.80;;
36653;SDS011;22650;49.350;20.898;2022-08-26T03:47:28;7.95;;;3.97;;
36653;SDS011;22650;49.350;20.898;2022-08-26T03:50:05;11.88;;;4.55;;
36653;SDS011;22650;49.350;20.898;2022-08-26T03:52:40;11.73;;;4.15;;
36653;SDS011;22650;49.350;20.898;2022-08-26T03:55:15;17.25;;;4.40;;
36653;SDS011;22650;49.350;20.898;2022-08-26T03:57:54;6.53;;;3.47;;
36653;SDS011;22650;49.350;20.898;2022-08-26T04:00:29;14.15;;;6.00;;
36653;SDS011;22650;49.350;20.898;2022-08-26T04:03:05;6.15;;;4.10;;
36653;SDS011;22650;49.350;20.898;2022-08-26T04:05:40;15.13;;;4.75;;
36653;SDS011;22650;49.350;20.898;2022-08-26T04:08:15;5.93;;;3.85;;
36653;SDS011;22650;49.350;20.898;2022-08-26T04:10:49;5.78;;;3.55;;
36653;SDS011;22650;49.350;20.898;2022-08-26T04:13:22;6.50;;;3.58;;
36653;SDS011;22650;49.350;20.898;2022-08-26T04:15:57;4.72;;;3.60;;
36653;SDS011;22650;49.350;20.898;2022-08-26T04:18:32;15.38;;;3.80;;
36653;SDS011;22650;49.350;20.898;2022-08-26T04:21:17;6.88;;;3.20;;
36653;SDS011;22650;49.350;20.898;2022-08-26T04:23:51;6.75;;;3.05;;
36653;SDS011;22650;49.350;20.898;2022-08-26T04:26:25;5.57;;;2.72;;
36653;SDS011;22650;49.350;20.898;2022-08-26T04:28:59;7.40;;;3.70;;
36653;SDS011;22650;49.350;20.898;2022-08-26T04:31:35;6.60;;;3.13;;
36653;SDS011;22650;49.350;20.898;2022-08-26T04:34:09;9.45;;;3.65;;
36653;SDS011;22650;49.350;20.898;2022-08-26T04:36:45;6.22;;;3.53;;
36653;SDS011;22650;49.350;20.898;2022-08-26T04:39:18;15.10;;;4.55;;
36653;SDS011;22650;49.350;20.898;2022-08-26T04:41:53;11.02;;;4.47;;
36653;SDS011;22650;49.350;20.898;2022-08-26T04:44:28;8.98;;;4.88;;
36653;SDS011;22650;49.350;20.898;2022-08-26T04:47:04;7.57;;;3.85;;
36653;SDS011;22650;49.350;20.898;2022-08-26T04:49:37;6.25;;;4.00;;
36653;SDS011;22650;49.350;20.898;2022-08-26T04:52:11;13.05;;;4.47;;
36653;SDS011;22650;49.350;20.898;2022-08-26T04:54:46;9.25;;;4.68;;
36653;SDS011;22650;49.350;20.898;2022-08-26T04:57:20;7.70;;;4.57;;
36653;SDS011;22650;49.350;20.898;2022-08-26T04:59:54;16.55;;;4.63;;
36653;SDS011;22650;49.350;20.898;2022-08-26T05:02:29;10.25;;;4.88;;
36653;SDS011;22650;49.350;20.898;2022-08-26T05:05:03;6.75;;;4.13;;
36653;SDS011;22650;49.350;20.898;2022-08-26T05:07:37;10.63;;;5.00;;
36653;SDS011;22650;49.350;20.898;2022-08-26T05:10:11;10.38;;;4.45;;
36653;SDS011;22650;49.350;20.898;2022-08-26T05:12:45;9.07;;;4.22;;
36653;SDS011;22650;49.350;20.898;2022-08-26T05:15:19;8.73;;;4.10;;
36653;SDS011;22650;49.350;20.898;2022-08-26T05:17:56;5.30;;;3.42;;
36653;SDS011;22650;49.350;20.898;2022-08-26T05:20:31;5.63;;;3.42;;
36653;SDS011;22650;49.350;20.898;2022-08-26T05:23:11;5.63;;;3.63;;
36653;SDS011;22650;49.350;20.898;2022-08-26T05:25:46;6.78;;;4.00;;
36653;SDS011;22650;49.350;20.898;2022-08-26T05:28:20;6.28;;;4.32;;
36653;SDS011;22650;49.350;20.898;2022-08-26T05:30:54;8.55;;;4.03;;
36653;SDS011;22650;49.350;20.898;2022-08-26T05:33:29;9.23;;;4.22;;
36653;SDS011;22650;49.350;20.898;2022-08-26T05:36:04;7.22;;;4.50;;
36653;SDS011;22650;49.350;20.898;2022-08-26T05:38:39;7.03;;;4.28;;
36653;SDS011;22650;49.350;20.898;2022-08-26T05:41:16;9.23;;;5.00;;
36653;SDS011;22650;49.350;20.898;2022-08-26T05:43:52;8.95;;;4.30;;
36653;SDS011;22650;49.350;20.898;2022-08-26T05:46:26;6.38;;;3.60;;
36653;SDS011;22650;49.350;20.898;2022-08-26T05:49:01;7.18;;;3.40;;
36653;SDS011;22650;49.350;20.898;2022-08-26T05:51:36;5.43;;;3.80;;
36653;SDS011;22650;49.350;20.898;2022-08-26T05:54:10;8.82;;;3.95;;
36653;SDS011;22650;49.350;20.898;2022-08-26T05:56:52;9.68;;;5.30;;
36653;SDS011;22650;49.350;20.898;2022-08-26T05:59:25;8.27;;;4.38;;
36653;SDS011;22650;49.350;20.898;2022-08-26T06:02:00;10.13;;;5.05;;
36653;SDS011;22650;49.350;20.898;2022-08-26T06:04:35;6.63;;;3.97;;
36653;SDS011;22650;49.350;20.898;2022-08-26T06:07:09;11.50;;;4.97;;
36653;SDS011;22650;49.350;20.898;2022-08-26T06:09:44;6.15;;;4.05;;
36653;SDS011;22650;49.350;20.898;2022-08-26T06:12:17;5.95;;;4.30;;
36653;SDS011;22650;49.350;20.898;2022-08-26T06:14:51;6.03;;;4.05;;
36653;SDS011;22650;49.350;20.898;2022-08-26T06:17:25;6.45;;;4.25;;
36653;SDS011;22650;49.350;20.898;2022-08-26T06:20:03;6.28;;;4.15;;
36653;SDS011;22650;49.350;20.898;2022-08-26T06:22:37;6.10;;;4.43;;
36653;SDS011;22650;49.350;20.898;2022-08-26T06:25:36;11.18;;;4.75;;
36653;SDS011;22650;49.350;20.898;2022-08-26T06:28:10;14.27;;;5.15;;
36653;SDS011;22650;49.350;20.898;2022-08-26T06:30:45;6.82;;;4.53;;
36653;SDS011;22650;49.350;20.898;2022-08-26T06:33:19;10.75;;;5.60;;
36653;SDS011;22650;49.350;20.898;2022-08-26T06:35:54;7.45;;;4.18;;
36653;SDS011;22650;49.350;20.898;2022-08-26T06:38:29;9.20;;;4.93;;
36653;SDS011;22650;49.350;20.898;2022-08-26T06:41:03;9.02;;;4.82;;
36653;SDS011;22650;49.350;20.898;2022-08-26T06:43:37;7.72;;;3.78;;
36653;SDS011;22650;49.350;20.898;2022-08-26T06:46:11;7.82;;;4.70;;
36653;SDS011;22650;49.350;20.898;2022-08-26T06:48:47;7.18;;;3.67;;
36653;SDS011;22650;49.350;20.898;2022-08-26T06:51:23;8.82;;;4.38;;
36653;SDS011;22650;49.350;20.898;2022-08-26T06:53:58;10.00;;;4.85;;
36653;SDS011;22650;49.350;20.898;2022-08-26T06:56:33;9.18;;;5.10;;
36653;SDS011;22650;49.350;20.898;2022-08-26T06:59:08;9.80;;;4.75;;
36653;SDS011;22650;49.350;20.898;2022-08-26T07:01:43;8.82;;;4.22;;
36653;SDS011;22650;49.350;20.898;2022-08-26T07:04:17;6.65;;;4.35;;
36653;SDS011;22650;49.350;20.898;2022-08-26T07:06:55;23.63;;;4.68;;
36653;SDS011;22650;49.350;20.898;2022-08-26T07:09:28;23.13;;;5.20;;
36653;SDS011;22650;49.350;20.898;2022-08-26T07:12:03;10.55;;;5.35;;
36653;SDS011;22650;49.350;20.898;2022-08-26T07:14:37;9.48;;;4.90;;
36653;SDS011;22650;49.350;20.898;2022-08-26T07:17:18;5.28;;;3.60;;
36653;SDS011;22650;49.350;20.898;2022-08-26T07:19:55;11.82;;;3.65;;
36653;SDS011;22650;49.350;20.898;2022-08-26T07:22:31;17.45;;;5.03;;
36653;SDS011;22650;49.350;20.898;2022-08-26T07:25:05;7.10;;;4.40;;
36653;SDS011;22650;49.350;20.898;2022-08-26T07:27:40;7.85;;;3.85;;
36653;SDS011;22650;49.350;20.898;2022-08-26T07:30:14;6.78;;;4.05;;
36653;SDS011;22650;49.350;20.898;2022-08-26T07:32:47;9.52;;;3.47;;
36653;SDS011;22650;49.350;20.898;2022-08-26T07:35:21;8.88;;;4.13;;
36653;SDS011;22650;49.350;20.898;2022-08-26T07:37:56;5.68;;;3.55;;
36653;SDS011;22650;49.350;20.898;2022-08-26T07:40:30;6.63;;;3.67;;
36653;SDS011;22650;49.350;20.898;2022-08-26T07:43:04;10.57;;;4.07;;
36653;SDS011;22650;49.350;20.898;2022-08-26T07:45:38;14.30;;;3.33;;
36653;SDS011;22650;49.350;20.898;2022-08-26T07:48:13;6.90;;;3.50;;
36653;SDS011;22650;49.350;20.898;2022-08-26T07:50:46;5.63;;;3.70;;
36653;SDS011;22650;49.350;20.898;2022-08-26T07:53:24;17.23;;;4.07;;
36653;SDS011;22650;49.350;20.898;2022-08-26T07:55:59;8.82;;;3.38;;
36653;SDS011;22650;49.350;20.898;2022-08-26T07:58:32;21.40;;;5.10;;
36653;SDS011;22650;49.350;20.898;2022-08-26T08:01:06;5.70;;;3.97;;
36653;SDS011;22650;49.350;20.898;2022-08-26T08:03:40;9.48;;;3.83;;
36653;SDS011;22650;49.350;20.898;2022-08-26T08:06:13;11.13;;;3.95;;
36653;SDS011;22650;49.350;20.898;2022-08-26T08:08:49;7.60;;;3.05;;
36653;SDS011;22650;49.350;20.898;2022-08-26T08:11:23;12.40;;;3.40;;
36653;SDS011;22650;49.350;20.898;2022-08-26T08:13:57;6.75;;;3.08;;
36653;SDS011;22650;49.350;20.898;2022-08-26T08:16:32;7.20;;;3.28;;
36653;SDS011;22650;49.350;20.898;2022-08-26T08:19:09;12.90;;;3.38;;
36653;SDS011;22650;49.350;20.898;2022-08-26T08:21:43;7.43;;;3.17;;
36653;SDS011;22650;49.350;20.898;2022-08-26T08:24:19;7.07;;;2.97;;
36653;SDS011;22650;49.350;20.898;2022-08-26T08:26:52;7.65;;;3.00;;
36653;SDS011;22650;49.350;20.898;2022-08-26T08:29:26;7.53;;;3.03;;
36653;SDS011;22650;49.350;20.898;2022-08-26T08:32:01;8.48;;;3.03;;
36653;SDS011;22650;49.350;20.898;2022-08-26T08:34:35;7.63;;;3.08;;
36653;SDS011;22650;49.350;20.898;2022-08-26T08:37:13;6.53;;;3.58;;
36653;SDS011;22650;49.350;20.898;2022-08-26T08:39:48;12.90;;;3.65;;
36653;SDS011;22650;49.350;20.898;2022-08-26T08:42:35;6.85;;;2.75;;
36653;SDS011;22650;49.350;20.898;2022-08-26T08:45:14;9.05;;;3.50;;
36653;SDS011;22650;49.350;20.898;2022-08-26T08:47:52;10.15;;;3.30;;
36653;SDS011;22650;49.350;20.898;2022-08-26T08:50:29;5.47;;;3.33;;
36653;SDS011;22650;49.350;20.898;2022-08-26T08:53:09;9.35;;;3.17;;
36653;SDS011;22650;49.350;20.898;2022-08-26T08:55:57;8.27;;;3.33;;
36653;SDS011;22650;49.350;20.898;2022-08-26T08:58:42;15.10;;;4.00;;
36653;SDS011;22650;49.350;20.898;2022-08-26T09:01:29;10.48;;;3.30;;
36653;SDS011;22650;49.350;20.898;2022-08-26T09:04:18;11.65;;;3.28;;
36653;SDS011;22650;49.350;20.898;2022-08-26T09:07:05;13.90;;;3.03;;
36653;SDS011;22650;49.350;20.898;2022-08-26T09:09:44;10.45;;;3.13;;
36653;SDS011;22650;49.350;20.898;2022-08-26T09:12:23;9.52;;;3.30;;
36653;SDS011;22650;49.350;20.898;2022-08-26T09:15:00;5.65;;;2.78;;
36653;SDS011;22650;49.350;20.898;2022-08-26T09:17:39;7.15;;;2.35;;
36653;SDS011;22650;49.350;20.898;2022-08-26T09:20:20;6.80;;;3.47;;
36653;SDS011;22650;49.350;20.898;2022-08-26T09:23:08;9.73;;;2.13;;
36653;SDS011;22650;49.350;20.898;2022-08-26T09:25:45;13.82;;;2.40;;
36653;SDS011;22650;49.350;20.898;2022-08-26T09:28:23;20.38;;;2.50;;
36653;SDS011;22650;49.350;20.898;2022-08-26T09:30:59;5.22;;;2.33;;
36653;SDS011;22650;49.350;20.898;2022-08-26T09:33:41;5.10;;;2.40;;
36653;SDS011;22650;49.350;20.898;2022-08-26T09:36:16;5.38;;;2.20;;
36653;SDS011;22650;49.350;20.898;2022-08-26T09:38:55;14.48;;;2.25;;
36653;SDS011;22650;49.350;20.898;2022-08-26T09:41:29;7.75;;;1.98;;
36653;SDS011;22650;49.350;20.898;2022-08-26T09:44:10;4.43;;;2.42;;
36653;SDS011;22650;49.350;20.898;2022-08-26T09:46:52;8.18;;;2.00;;
36653;SDS011;22650;49.350;20.898;2022-08-26T09:52:08;8.38;;;2.25;;
36653;SDS011;22650;49.350;20.898;2022-08-26T09:54:56;11.75;;;2.08;;
36653;SDS011;22650;49.350;20.898;2022-08-26T09:57:34;8.20;;;2.13;;
36653;SDS011;22650;49.350;20.898;2022-08-26T10:03:00;7.47;;;2.40;;
36653;SDS011;22650;49.350;20.898;2022-08-26T10:05:37;8.32;;;2.63;;
36653;SDS011;22650;49.350;20.898;2022-08-26T10:08:19;6.57;;;2.00;;
36653;SDS011;22650;49.350;20.898;2022-08-26T10:10:55;9.18;;;1.77;;
36653;SDS011;22650;49.350;20.898;2022-08-26T10:13:34;6.63;;;2.80;;
36653;SDS011;22650;49.350;20.898;2022-08-26T10:16:15;11.50;;;2.25;;
36653;SDS011;22650;49.350;20.898;2022-08-26T10:18:54;11.10;;;2.15;;
36653;SDS011;22650;49.350;20.898;2022-08-26T10:21:34;14.38;;;2.47;;
36653;SDS011;22650;49.350;20.898;2022-08-26T10:24:10;10.23;;;2.55;;
36653;SDS011;22650;49.350;20.898;2022-08-26T10:26:57;11.40;;;2.33;;
36653;SDS011;22650;49.350;20.898;2022-08-26T10:29:36;5.18;;;1.83;;
36653;SDS011;22650;49.350;20.898;2022-08-26T10:32:17;5.57;;;1.77;;
36653;SDS011;22650;49.350;20.898;2022-08-26T10:34:55;4.00;;;1.53;;
36653;SDS011;22650;49.350;20.898;2022-08-26T10:37:32;8.07;;;1.70;;
36653;SDS011;22650;49.350;20.898;2022-08-26T10:40:10;4.60;;;1.83;;
36653;SDS011;22650;49.350;20.898;2022-08-26T10:42:48;4.18;;;1.67;;
36653;SDS011;22650;49.350;20.898;2022-08-26T10:45:27;5.25;;;2.13;;
36653;SDS011;22650;49.350;20.898;2022-08-26T10:48:04;7.03;;;2.20;;
36653;SDS011;22650;49.350;20.898;2022-08-26T10:50:42;3.70;;;1.90;;
36653;SDS011;22650;49.350;20.898;2022-08-26T10:53:19;6.13;;;1.80;;
36653;SDS011;22650;49.350;20.898;2022-08-26T10:56:04;6.57;;;1.73;;
36653;SDS011;22650;49.350;20.898;2022-08-26T10:58:52;5.65;;;1.50;;
36653;SDS011;22650;49.350;20.898;2022-08-26T11:01:33;15.82;;;2.35;;
36653;SDS011;22650;49.350;20.898;2022-08-26T11:04:25;4.03;;;1.70;;
36653;SDS011;22650;49.350;20.898;2022-08-26T11:16:34;2.78;;;1.75;;
36653;SDS011;22650;49.350;20.898;2022-08-26T11:22:35;6.63;;;1.70;;
36653;SDS011;22650;49.350;20.898;2022-08-26T11:25:19;6.82;;;2.40;;
36653;SDS011;22650;49.350;20.898;2022-08-26T11:30:44;6.78;;;1.88;;
36653;SDS011;22650;49.350;20.898;2022-08-26T11:39:33;11.48;;;1.90;;
36653;SDS011;22650;49.350;20.898;2022-08-26T11:42:28;6.05;;;1.60;;
36653;SDS011;22650;49.350;20.898;2022-08-26T11:45:12;6.80;;;2.17;;
36653;SDS011;22650;49.350;20.898;2022-08-26T11:47:49;7.40;;;1.63;;
36653;SDS011;22650;49.350;20.898;2022-08-26T11:50:24;5.13;;;1.65;;
36653;SDS011;22650;49.350;20.898;2022-08-26T11:53:01;4.07;;;1.60;;
36653;SDS011;22650;49.350;20.898;2022-08-26T11:55:41;4.93;;;2.13;;
36653;SDS011;22650;49.350;20.898;2022-08-26T11:58:17;7.53;;;1.73;;
36653;SDS011;22650;49.350;20.898;2022-08-26T12:00:53;4.47;;;1.58;;
36653;SDS011;22650;49.350;20.898;2022-08-26T12:03:34;6.07;;;1.80;;
36653;SDS011;22650;49.350;20.898;2022-08-26T12:06:12;2.20;;;1.40;;
36653;SDS011;22650;49.350;20.898;2022-08-26T12:08:48;4.90;;;2.63;;
36653;SDS011;22650;49.350;20.898;2022-08-26T12:11:26;5.22;;;1.90;;
36653;SDS011;22650;49.350;20.898;2022-08-26T12:14:03;4.30;;;1.88;;
36653;SDS011;22650;49.350;20.898;2022-08-26T12:16:39;6.80;;;1.70;;
36653;SDS011;22650;49.350;20.898;2022-08-26T12:19:22;8.35;;;1.38;;
36653;SDS011;22650;49.350;20.898;2022-08-26T12:21:59;6.63;;;2.00;;
36653;SDS011;22650;49.350;20.898;2022-08-26T12:24:40;3.78;;;2.00;;
36653;SDS011;22650;49.350;20.898;2022-08-26T12:27:17;6.95;;;2.13;;
36653;SDS011;22650;49.350;20.898;2022-08-26T12:30:01;6.70;;;2.42;;
36653;SDS011;22650;49.350;20.898;2022-08-26T12:32:41;3.03;;;1.73;;
36653;SDS011;22650;49.350;20.898;2022-08-26T12:35:29;3.05;;;2.03;;
36653;SDS011;22650;49.350;20.898;2022-08-26T12:38:06;5.50;;;1.92;;
36653;SDS011;22650;49.350;20.898;2022-08-26T12:40:41;7.38;;;2.05;;
36653;SDS011;22650;49.350;20.898;2022-08-26T12:46:27;4.68;;;1.70;;
36653;SDS011;22650;49.350;20.898;2022-08-26T12:49:01;8.15;;;2.42;;
36653;SDS011;22650;49.350;20.898;2022-08-26T12:51:35;6.90;;;1.80;;
36653;SDS011;22650;49.350;20.898;2022-08-26T12:54:13;6.97;;;2.30;;
36653;SDS011;22650;49.350;20.898;2022-08-26T12:56:48;3.55;;;2.17;;
36653;SDS011;22650;49.350;20.898;2022-08-26T12:59:24;6.32;;;2.03;;
36653;SDS011;22650;49.350;20.898;2022-08-26T13:01:58;9.95;;;2.05;;
36653;SDS011;22650;49.350;20.898;2022-08-26T13:04:33;6.05;;;2.08;;
36653;SDS011;22650;49.350;20.898;2022-08-26T13:10:00;4.67;;;1.40;;
36653;SDS011;22650;49.350;20.898;2022-08-26T13:12:35;7.03;;;2.13;;
36653;SDS011;22650;49.350;20.898;2022-08-26T13:15:12;6.10;;;1.95;;
36653;SDS011;22650;49.350;20.898;2022-08-26T13:17:46;2.30;;;1.80;;
36653;SDS011;22650;49.350;20.898;2022-08-26T13:20:19;6.90;;;2.30;;
36653;SDS011;22650;49.350;20.898;2022-08-26T13:22:53;9.27;;;2.10;;
36653;SDS011;22650;49.350;20.898;2022-08-26T13:25:30;4.72;;;1.92;;
36653;SDS011;22650;49.350;20.898;2022-08-26T13:28:03;7.20;;;2.25;;
36653;SDS011;22650;49.350;20.898;2022-08-26T13:30:38;6.47;;;2.30;;
36653;SDS011;22650;49.350;20.898;2022-08-26T13:33:13;5.80;;;2.13;;
36653;SDS011;22650;49.350;20.898;2022-08-26T13:35:48;6.75;;;2.05;;
36653;SDS011;22650;49.350;20.898;2022-08-26T13:38:22;2.90;;;2.08;;
36653;SDS011;22650;49.350;20.898;2022-08-26T13:43:38;5.25;;;2.38;;
36653;SDS011;22650;49.350;20.898;2022-08-26T13:46:13;6.63;;;2.10;;
36653;SDS011;22650;49.350;20.898;2022-08-26T13:48:47;6.55;;;2.60;;
36653;SDS011;22650;49.350;20.898;2022-08-26T13:51:20;9.32;;;2.63;;
36653;SDS011;22650;49.350;20.898;2022-08-26T13:53:54;3.75;;;2.20;;
36653;SDS011;22650;49.350;20.898;2022-08-26T13:56:28;6.40;;;2.10;;
36653;SDS011;22650;49.350;20.898;2022-08-26T13:59:01;7.35;;;2.13;;
36653;SDS011;22650;49.350;20.898;2022-08-26T14:01:38;4.78;;;2.13;;
36653;SDS011;22650;49.350;20.898;2022-08-26T14:04:12;4.13;;;1.80;;
36653;SDS011;22650;49.350;20.898;2022-08-26T14:06:45;6.15;;;2.00;;
36653;SDS011;22650;49.350;20.898;2022-08-26T14:09:19;10.48;;;2.53;;
36653;SDS011;22650;49.350;20.898;2022-08-26T14:11:52;6.38;;;2.47;;
36653;SDS011;22650;49.350;20.898;2022-08-26T14:14:26;8.52;;;2.45;;
36653;SDS011;22650;49.350;20.898;2022-08-26T14:17:03;5.75;;;2.00;;
36653;SDS011;22650;49.350;20.898;2022-08-26T14:19:38;3.88;;;2.35;;
36653;SDS011;22650;49.350;20.898;2022-08-26T14:22:16;4.80;;;2.65;;
36653;SDS011;22650;49.350;20.898;2022-08-26T14:24:53;4.35;;;2.50;;
36653;SDS011;22650;49.350;20.898;2022-08-26T14:27:27;7.25;;;2.50;;
36653;SDS011;22650;49.350;20.898;2022-08-26T14:30:00;4.43;;;2.50;;
36653;SDS011;22650;49.350;20.898;2022-08-26T14:32:36;5.53;;;2.35;;
36653;SDS011;22650;49.350;20.898;2022-08-26T14:35:15;7.88;;;2.40;;
36653;SDS011;22650;49.350;20.898;2022-08-26T14:37:50;3.63;;;1.98;;
36653;SDS011;22650;49.350;20.898;2022-08-26T14:40:25;5.38;;;2.45;;
36653;SDS011;22650;49.350;20.898;2022-08-26T14:43:04;3.38;;;2.15;;
36653;SDS011;22650;49.350;20.898;2022-08-26T14:45:42;9.70;;;2.50;;
36653;SDS011;22650;49.350;20.898;2022-08-26T14:48:18;4.05;;;2.28;;
36653;SDS011;22650;49.350;20.898;2022-08-26T14:50:51;6.55;;;2.42;;
36653;SDS011;22650;49.350;20.898;2022-08-26T14:53:25;3.80;;;2.25;;
36653;SDS011;22650;49.350;20.898;2022-08-26T14:56:15;2.83;;;2.20;;
36653;SDS011;22650;49.350;20.898;2022-08-26T14:58:50;6.15;;;2.22;;
36653;SDS011;22650;49.350;20.898;2022-08-26T15:01:23;9.98;;;2.42;;
36653;SDS011;22650;49.350;20.898;2022-08-26T15:04:03;5.45;;;2.13;;
36653;SDS011;22650;49.350;20.898;2022-08-26T15:06:36;8.75;;;1.92;;
36653;SDS011;22650;49.350;20.898;2022-08-26T15:09:10;12.32;;;2.42;;
36653;SDS011;22650;49.350;20.898;2022-08-26T15:11:44;4.68;;;2.28;;
36653;SDS011;22650;49.350;20.898;2022-08-26T15:14:19;5.45;;;2.78;;
36653;SDS011;22650;49.350;20.898;2022-08-26T15:16:53;8.63;;;2.35;;
36653;SDS011;22650;49.350;20.898;2022-08-26T15:19:29;8.77;;;3.10;;
36653;SDS011;22650;49.350;20.898;2022-08-26T15:22:03;3.67;;;2.70;;
36653;SDS011;22650;49.350;20.898;2022-08-26T15:24:36;14.25;;;2.78;;
36653;SDS011;22650;49.350;20.898;2022-08-26T15:27:10;10.25;;;3.17;;
36653;SDS011;22650;49.350;20.898;2022-08-26T15:29:44;3.35;;;2.25;;
36653;SDS011;22650;49.350;20.898;2022-08-26T15:32:17;13.60;;;2.88;;
36653;SDS011;22650;49.350;20.898;2022-08-26T15:34:52;6.53;;;2.83;;
36653;SDS011;22650;49.350;20.898;2022-08-26T15:37:26;8.93;;;2.40;;
36653;SDS011;22650;49.350;20.898;2022-08-26T15:39:59;8.88;;;2.33;;
36653;SDS011;22650;49.350;20.898;2022-08-26T15:42:33;7.22;;;2.42;;
36653;SDS011;22650;49.350;20.898;2022-08-26T15:45:07;3.97;;;2.38;;
36653;SDS011;22650;49.350;20.898;2022-08-26T15:47:41;5.38;;;2.08;;
36653;SDS011;22650;49.350;20.898;2022-08-26T15:50:33;3.50;;;2.47;;
36653;SDS011;22650;49.350;20.898;2022-08-26T15:53:06;4.20;;;2.08;;
36653;SDS011;22650;49.350;20.898;2022-08-26T15:55:40;6.72;;;2.28;;
36653;SDS011;22650;49.350;20.898;2022-08-26T15:58:13;7.50;;;2.72;;
36653;SDS011;22650;49.350;20.898;2022-08-26T16:00:47;9.98;;;2.60;;